createdAt,value
2022-11-01T10:11:08.632Z,51.72
2022-11-01T10:13:46.774Z,51.51
2022-11-01T10:16:51.757Z,51.67
2022-11-01T10:19:22.148Z,51.46
2022-11-01T10:21:56.567Z,51.45
2022-11-01T10:25:05.199Z,51.10
2022-11-01T10:27:44.842Z,51.26
2022-11-01T10:30:18.468Z,51.14
2022-11-01T10:33:03.975Z,51.19
2022-11-01T10:35:35.683Z,51.23
2022-11-01T10:38:38.156Z,51.11
2022-11-01T10:41:10.276Z,51.24
2022-11-01T10:43:45.784Z,51.19
2022-11-01T10:46:18.618Z,51.15
2022-11-01T10:48:54.867Z,51.27
2022-11-01T10:51:27.784Z,51.11
2022-11-01T10:54:00.926Z,51.16
2022-11-01T10:56:41.935Z,51.42
2022-11-01T10:59:33.687Z,51.25
2022-11-01T11:02:05.789Z,51.09
2022-11-01T11:04:34.619Z,51.10
2022-11-01T11:07:03.373Z,51.25
2022-11-01T11:09:38.798Z,51.40
2022-11-01T11:12:17.000Z,51.30
2022-11-01T11:14:49.522Z,51.16
2022-11-01T11:17:29.204Z,51.40
2022-11-01T11:20:05.254Z,51.27
2022-11-01T11:22:41.858Z,51.58
2022-11-01T11:25:19.893Z,51.53
2022-11-01T11:27:50.613Z,51.53
2022-11-01T11:30:33.611Z,51.46
2022-11-01T11:33:02.723Z,51.38
2022-11-01T11:35:32.993Z,51.57
2022-11-01T11:38:05.443Z,51.76
2022-11-01T11:40:43.569Z,52.81
2022-11-01T11:43:37.532Z,53.39
2022-11-01T11:46:14.093Z,54.01
2022-11-01T11:49:07.349Z,55.24
2022-11-01T11:51:38.302Z,55.60
2022-11-01T11:54:29.329Z,56.01
2022-11-01T11:57:18.442Z,55.94
2022-11-01T11:59:59.485Z,55.54
2022-11-01T12:02:34.964Z,55.22
2022-11-01T12:05:16.713Z,54.83
2022-11-01T12:07:50.664Z,54.61
2022-11-01T12:10:38.072Z,54.88
2022-11-01T12:13:39.204Z,54.58
2022-11-01T12:16:15.068Z,54.75
2022-11-01T12:19:00.059Z,54.21
2022-11-01T12:21:36.839Z,54.56
2022-11-01T12:24:24.217Z,54.17
2022-11-01T12:26:56.203Z,54.08
2022-11-01T12:29:36.013Z,54.02
2022-11-01T12:32:21.134Z,53.75
2022-11-01T12:34:50.266Z,53.18
2022-11-01T12:37:27.145Z,53.11
2022-11-01T12:40:26.803Z,53.24
2022-11-01T12:43:31.105Z,53.01
2022-11-01T12:46:40.078Z,52.68
2022-11-01T12:49:29.714Z,52.72
2022-11-01T12:52:04.354Z,52.68
2022-11-01T12:54:47.694Z,52.43
2022-11-01T12:57:18.386Z,52.56
2022-11-01T12:59:48.495Z,52.45
2022-11-01T13:02:32.533Z,52.42
2022-11-01T13:05:23.891Z,52.14
2022-11-01T13:08:15.144Z,52.00
2022-11-01T13:10:46.757Z,51.99
2022-11-01T13:13:50.915Z,50.97
2022-11-01T13:16:32.535Z,50.73
2022-11-01T13:19:03.895Z,50.34
2022-11-01T13:21:59.886Z,50.47
2022-11-01T13:24:34.094Z,48.92
2022-11-01T13:27:31.903Z,49.08
2022-11-01T13:30:11.139Z,49.01
2022-11-01T13:32:56.205Z,49.17
2022-11-01T13:35:48.741Z,49.19
2022-11-01T13:38:53.250Z,49.04
2022-11-01T13:41:30.377Z,49.13
2022-11-01T13:44:04.203Z,49.25
2022-11-01T13:46:40.138Z,49.60
2022-11-01T13:49:20.022Z,49.31
2022-11-01T13:52:00.673Z,49.60
2022-11-01T13:54:44.798Z,49.79
2022-11-01T13:57:18.102Z,49.77
2022-11-01T13:59:57.736Z,49.89
2022-11-01T14:02:26.537Z,49.69
2022-11-01T14:04:56.876Z,49.77
2022-11-01T14:07:26.965Z,49.74
2022-11-01T14:09:56.815Z,49.95
2022-11-01T14:12:46.659Z,49.62
2022-11-01T14:15:25.999Z,49.67
2022-11-01T14:18:10.763Z,49.72
2022-11-01T14:20:41.301Z,49.86
2022-11-01T14:23:28.204Z,49.57
2022-11-01T14:26:18.924Z,49.32
2022-11-01T14:28:49.472Z,49.46
2022-11-01T14:31:20.212Z,49.57
2022-11-01T14:33:50.432Z,49.80
2022-11-01T14:36:22.131Z,49.76
2022-11-01T14:39:07.452Z,49.89
2022-11-01T14:41:38.570Z,49.95
2022-11-01T14:44:12.503Z,50.16
2022-11-01T14:46:46.726Z,50.07
2022-11-01T14:49:22.216Z,50.15
2022-11-01T14:52:06.070Z,50.33
2022-11-01T14:54:36.467Z,50.56
2022-11-01T14:57:26.126Z,50.35
2022-11-01T14:59:55.617Z,50.56
2022-11-01T15:02:26.347Z,50.61
2022-11-01T15:04:59.617Z,50.51
2022-11-01T15:07:31.199Z,50.64
2022-11-01T15:10:04.256Z,50.55
2022-11-01T15:12:36.204Z,50.86
2022-11-01T15:15:05.425Z,50.81
2022-11-01T15:17:35.055Z,50.91
2022-11-01T15:20:09.156Z,50.95
2022-11-01T15:22:38.409Z,51.15
2022-11-01T15:25:07.515Z,51.29
2022-11-01T15:27:42.423Z,51.39
2022-11-01T15:30:26.611Z,50.45
2022-11-01T15:33:25.151Z,50.48
2022-11-01T15:35:59.701Z,50.70
2022-11-01T15:38:29.448Z,50.56
2022-11-01T15:40:58.267Z,50.71
2022-11-01T15:43:28.140Z,50.67
2022-11-01T15:46:00.978Z,50.82
2022-11-01T15:48:38.392Z,50.79
2022-11-01T15:51:09.856Z,50.75
2022-11-01T15:53:38.967Z,51.07
2022-11-01T15:56:32.981Z,51.08
2022-11-01T15:59:02.249Z,51.26
2022-11-01T16:01:31.520Z,51.36
2022-11-01T16:04:02.079Z,51.34
2022-11-01T16:06:42.967Z,51.46
2022-11-01T16:09:27.157Z,51.46
2022-11-01T16:12:00.570Z,51.42
2022-11-01T16:14:37.889Z,51.57
2022-11-01T16:17:20.707Z,51.35
2022-11-01T16:19:51.777Z,51.49
2022-11-01T16:22:37.142Z,51.54
2022-11-01T16:25:15.616Z,51.50
2022-11-01T16:28:26.831Z,51.52
2022-11-01T16:30:56.748Z,51.81
2022-11-01T16:33:35.759Z,52.04
2022-11-01T16:36:20.892Z,52.17
2022-11-01T16:38:52.197Z,52.18
2022-11-01T16:41:39.672Z,52.53
2022-11-01T16:44:15.096Z,52.70
2022-11-01T16:46:45.149Z,52.91
2022-11-01T16:49:18.746Z,53.10
2022-11-01T16:51:47.855Z,53.33
2022-11-01T16:54:16.776Z,53.33
2022-11-01T16:56:50.896Z,53.75
2022-11-01T17:03:39.581Z,54.30
2022-11-01T17:06:08.983Z,54.43
2022-11-01T17:08:38.411Z,54.52
2022-11-01T17:11:09.456Z,54.99
2022-11-01T17:13:38.577Z,54.97
2022-11-01T17:16:12.846Z,55.05
2022-11-01T17:18:42.253Z,54.96
2022-11-01T17:21:12.335Z,54.89
2022-11-01T17:23:41.787Z,55.08
2022-11-01T17:26:11.274Z,55.20
2022-11-01T17:28:40.987Z,55.39
2022-11-01T17:31:09.998Z,55.40
2022-11-01T17:33:38.938Z,55.48
2022-11-01T17:36:11.545Z,55.48
2022-11-01T17:38:40.902Z,55.49
2022-11-01T17:41:11.149Z,55.58
2022-11-01T17:43:40.179Z,55.78
2022-11-01T17:46:18.258Z,55.65
2022-11-01T17:48:47.386Z,55.65
2022-11-01T17:51:17.988Z,55.66
2022-11-01T17:53:47.217Z,55.70
2022-11-01T17:56:16.339Z,55.69
2022-11-01T17:58:51.138Z,55.57
2022-11-01T18:01:22.693Z,55.97
2022-11-01T18:03:51.895Z,56.10
2022-11-01T18:06:21.464Z,56.10
2022-11-01T18:08:51.565Z,56.09
2022-11-01T18:11:42.860Z,56.07
2022-11-01T18:14:14.675Z,56.24
2022-11-01T18:16:52.703Z,56.36
2022-11-01T18:19:35.836Z,56.26
2022-11-01T18:22:07.711Z,56.00
2022-11-01T18:24:44.176Z,55.97
2022-11-01T18:27:13.896Z,55.96
2022-11-01T18:29:43.965Z,56.01
2022-11-01T18:32:18.195Z,56.38
2022-11-01T18:34:54.864Z,56.11
2022-11-01T18:37:38.044Z,56.27
2022-11-01T18:40:26.790Z,56.50
2022-11-01T18:42:56.012Z,56.72
2022-11-01T18:45:31.826Z,56.79
2022-11-01T18:48:24.817Z,57.08
2022-11-01T18:51:05.331Z,57.21
2022-11-01T18:53:35.373Z,57.06
2022-11-01T18:56:34.212Z,57.35
2022-11-01T18:59:04.355Z,57.87
2022-11-01T19:01:33.520Z,57.59
2022-11-01T19:04:22.410Z,57.82
2022-11-01T19:06:51.219Z,58.07
2022-11-01T19:09:29.221Z,58.46
2022-11-01T19:12:13.790Z,58.77
2022-11-01T19:14:43.881Z,58.85
2022-11-01T19:17:35.901Z,58.95
2022-11-01T19:20:16.022Z,58.76
2022-11-01T19:22:45.051Z,58.83
2022-11-01T19:25:33.140Z,58.87
2022-11-01T19:28:05.405Z,58.85
2022-11-01T19:30:35.525Z,58.99
2022-11-01T19:33:19.372Z,59.01
2022-11-01T19:35:50.102Z,58.85
2022-11-01T19:38:18.994Z,58.96
2022-11-01T19:40:53.454Z,58.82
2022-11-01T19:43:25.785Z,58.88
2022-11-01T19:45:56.490Z,59.06
2022-11-01T19:48:30.698Z,59.01
2022-11-01T19:51:01.632Z,58.73
2022-11-01T19:53:34.208Z,58.61
2022-11-01T19:56:05.800Z,59.51
2022-11-01T19:58:50.837Z,60.06
2022-11-01T20:01:43.211Z,60.17
2022-11-01T20:04:16.311Z,60.14
2022-11-01T20:06:49.893Z,60.20
2022-11-01T20:09:22.923Z,59.77
2022-11-01T20:11:52.656Z,59.82
2022-11-01T20:14:22.671Z,59.76
2022-11-01T20:16:54.342Z,59.66
2022-11-01T20:19:48.965Z,59.47
